Time,TemperatureF,DewpointF,PressureIn,WindDirection,WindDirectionDegrees,WindSpeedMPH,WindSpeedGustMPH,Humidity,HourlyPrecipIn,Conditions,Clouds,dailyrainin,SolarRadiationWatts/m^2,SoftwareType,DateUTC
2013-05-12 00:01:00,49.0,20.0,-100.00,SE,146,4.0,8.0,32,0.00,,,0.00,0.000000,,2013-05-12 06:01:00,
2013-05-12 00:11:00,49.0,20.0,-100.00,SE,146,4.0,8.0,32,0.00,,,0.00,0.000000,,2013-05-12 06:11:00,
2013-05-12 00:21:00,49.0,20.0,-100.00,SE,146,4.0,8.0,32,0.00,,,0.00,0.000000,,2013-05-12 06:21:00,
2013-05-12 00:52:00,48.0,18.0,-100.00,SSE,153,5.0,9.0,30,0.00,,,0.00,0.000000,,2013-05-12 06:52:00,
2013-05-12 01:01:00,48.0,18.0,-100.00,SSE,153,5.0,9.0,30,0.00,,,0.00,0.000000,,2013-05-12 07:01:00,
2013-05-12 01:11:00,48.0,18.0,-100.00,SSE,153,5.0,9.0,30,0.00,,,0.00,0.000000,,2013-05-12 07:11:00,
2013-05-12 01:21:00,48.0,18.0,-100.00,SSE,153,5.0,9.0,30,0.00,,,0.00,0.000000,,2013-05-12 07:21:00,
2013-05-12 01:42:00,48.0,16.0,-100.00,SSE,153,6.0,13.0,28,0.00,,,0.00,0.000000,,2013-05-12 07:42:00,
2013-05-12 01:52:00,48.0,16.0,-100.00,SSE,153,6.0,13.0,28,0.00,,,0.00,0.000000,,2013-05-12 07:52:00,
2013-05-12 02:02:00,48.0,16.0,-100.00,SSE,153,6.0,13.0,28,0.00,,,0.00,0.000000,,2013-05-12 08:02:00,
2013-05-12 02:11:00,48.0,16.0,-100.00,SSE,153,6.0,13.0,28,0.00,,,0.00,0.000000,,2013-05-12 08:11:00,
2013-05-12 02:21:00,48.0,16.0,-100.00,SSE,153,6.0,13.0,28,0.00,,,0.00,0.000000,,2013-05-12 08:21:00,
2013-05-12 02:42:00,46.0,18.0,-100.00,South,178,3.0,11.0,32,0.00,,,0.00,0.000000,,2013-05-12 08:42:00,
2013-05-12 02:53:00,46.0,18.0,-100.00,South,178,3.0,11.0,32,0.00,,,0.00,0.000000,,2013-05-12 08:53:00,
2013-05-12 03:01:00,46.0,18.0,-100.00,South,178,3.0,11.0,32,0.00,,,0.00,0.000000,,2013-05-12 09:01:00,
2013-05-12 03:11:00,46.0,18.0,-100.00,South,178,3.0,11.0,32,0.00,,,0.00,0.000000,,2013-05-12 09:11:00,
2013-05-12 03:21:00,46.0,18.0,-100.00,South,178,3.0,11.0,32,0.00,,,0.00,0.000000,,2013-05-12 09:21:00,
2013-05-12 03:53:00,44.0,17.0,-100.00,South,176,5.0,12.0,34,0.00,,,0.00,0.000000,,2013-05-12 09:53:00,
2013-05-12 04:03:00,44.0,17.0,-100.00,South,176,5.0,12.0,34,0.00,,,0.00,0.000000,,2013-05-12 10:03:00,
2013-05-12 04:12:00,44.0,17.0,-100.00,South,176,5.0,12.0,34,0.00,,,0.00,0.000000,,2013-05-12 10:12:00,
2013-05-12 04:22:00,44.0,17.0,-100.00,South,176,5.0,12.0,34,0.00,,,0.00,0.000000,,2013-05-12 10:22:00,
2013-05-12 04:42:00,42.0,18.0,-100.00,South,176,3.0,8.0,37,0.00,,,0.00,0.000000,,2013-05-12 10:42:00,
2013-05-12 04:52:00,42.0,18.0,-100.00,South,176,3.0,8.0,37,0.00,,,0.00,0.000000,,2013-05-12 10:52:00,
2013-05-12 05:02:00,42.0,18.0,-100.00,South,176,3.0,8.0,37,0.00,,,0.00,0.000000,,2013-05-12 11:02:00,
2013-05-12 05:12:00,42.0,18.0,-100.00,South,176,3.0,8.0,37,0.00,,,0.00,0.000000,,2013-05-12 11:12:00,
2013-05-12 05:21:00,42.0,18.0,-100.00,South,176,3.0,8.0,37,0.00,,,0.00,0.000000,,2013-05-12 11:21:00,
2013-05-12 05:42:00,43.0,20.0,-100.00,SSE,164,6.0,12.0,39,0.00,,,0.00,0.000000,,2013-05-12 11:42:00,
2013-05-12 05:52:00,43.0,20.0,-100.00,SSE,164,6.0,12.0,39,0.00,,,0.00,0.000000,,2013-05-12 11:52:00,
2013-05-12 06:02:00,43.0,20.0,-100.00,SSE,164,6.0,12.0,39,0.00,,,0.00,0.000000,,2013-05-12 12:02:00,
2013-05-12 06:11:00,43.0,20.0,-100.00,SSE,164,6.0,12.0,39,0.00,,,0.00,0.000000,,2013-05-12 12:11:00,
2013-05-12 06:21:00,43.0,20.0,-100.00,SSE,164,6.0,12.0,39,0.00,,,0.00,0.000000,,2013-05-12 12:21:00,
2013-05-12 06:42:00,44.0,21.0,-100.00,South,172,5.0,9.0,40,0.00,,,0.00,46.000000,,2013-05-12 12:42:00,
2013-05-12 06:52:00,44.0,21.0,-100.00,South,172,5.0,9.0,40,0.00,,,0.00,46.000000,,2013-05-12 12:52:00,
2013-05-12 07:02:00,44.0,21.0,-100.00,South,172,5.0,9.0,40,0.00,,,0.00,46.000000,,2013-05-12 13:02:00,
2013-05-12 07:11:00,44.0,21.0,-100.00,South,172,5.0,9.0,40,0.00,,,0.00,46.000000,,2013-05-12 13:11:00,
2013-05-12 07:21:00,44.0,21.0,-100.00,South,172,5.0,9.0,40,0.00,,,0.00,46.000000,,2013-05-12 13:21:00,
2013-05-12 07:52:00,52.0,26.0,-100.00,SSE,160,7.0,10.0,36,0.00,,,0.00,225.000000,,2013-05-12 13:52:00,
2013-05-12 08:01:00,52.0,26.0,-100.00,SSE,160,7.0,10.0,36,0.00,,,0.00,225.000000,,2013-05-12 14:01:00,
2013-05-12 08:11:00,52.0,26.0,-100.00,SSE,160,7.0,10.0,36,0.00,,,0.00,225.000000,,2013-05-12 14:11:00,
2013-05-12 08:21:00,52.0,26.0,-100.00,SSE,160,7.0,10.0,36,0.00,,,0.00,225.000000,,2013-05-12 14:21:00,
2013-05-12 08:52:00,58.0,28.0,-100.00,SSE,166,6.0,10.0,32,0.00,,,0.00,435.000000,,2013-05-12 14:52:00,
2013-05-12 09:01:00,58.0,28.0,-100.00,SSE,166,6.0,10.0,32,0.00,,,0.00,435.000000,,2013-05-12 15:01:00,
2013-05-12 09:11:00,58.0,28.0,-100.00,SSE,166,6.0,10.0,32,0.00,,,0.00,435.000000,,2013-05-12 15:11:00,
2013-05-12 09:21:00,58.0,28.0,-100.00,SSE,166,6.0,10.0,32,0.00,,,0.00,435.000000,,2013-05-12 15:21:00,
2013-05-12 09:53:00,66.0,30.0,-100.00,South,179,7.0,12.0,26,0.00,,,0.00,637.000000,,2013-05-12 15:53:00,
2013-05-12 10:02:00,66.0,30.0,-100.00,South,179,7.0,12.0,26,0.00,,,0.00,637.000000,,2013-05-12 16:02:00,
2013-05-12 10:12:00,66.0,30.0,-100.00,South,179,7.0,12.0,26,0.00,,,0.00,637.000000,,2013-05-12 16:12:00,
2013-05-12 10:23:00,66.0,30.0,-100.00,South,179,7.0,12.0,26,0.00,,,0.00,637.000000,,2013-05-12 16:23:00,
2013-05-12 10:53:00,71.0,31.0,-100.00,SE,146,7.0,13.0,23,0.00,,,0.00,815.000000,,2013-05-12 16:53:00,
2013-05-12 11:02:00,71.0,31.0,-100.00,SE,146,7.0,13.0,23,0.00,,,0.00,815.000000,,2013-05-12 17:02:00,
2013-05-12 11:12:00,71.0,31.0,-100.00,SE,146,7.0,13.0,23,0.00,,,0.00,815.000000,,2013-05-12 17:12:00,
2013-05-12 11:22:00,71.0,31.0,-100.00,SE,146,7.0,13.0,23,0.00,,,0.00,815.000000,,2013-05-12 17:22:00,
2013-05-12 11:42:00,75.0,32.0,-100.00,SE,145,8.0,15.0,21,0.00,,,0.00,957.000000,,2013-05-12 17:42:00,
2013-05-12 11:53:00,75.0,32.0,-100.00,SE,145,8.0,15.0,21,0.00,,,0.00,957.000000,,2013-05-12 17:53:00,
2013-05-12 12:01:00,75.0,32.0,-100.00,SE,145,8.0,15.0,21,0.00,,,0.00,957.000000,,2013-05-12 18:01:00,
2013-05-12 12:12:00,75.0,32.0,-100.00,SE,145,8.0,15.0,21,0.00,,,0.00,957.000000,,2013-05-12 18:12:00,
2013-05-12 12:22:00,75.0,32.0,-100.00,SE,145,8.0,15.0,21,0.00,,,0.00,957.000000,,2013-05-12 18:22:00,
2013-05-12 12:52:00,78.0,35.0,-100.00,South,178,8.0,17.0,21,0.00,,,0.00,1046.000000,,2013-05-12 18:52:00,
2013-05-12 13:01:00,78.0,35.0,-100.00,South,178,8.0,17.0,21,0.00,,,0.00,1046.000000,,2013-05-12 19:01:00,
2013-05-12 13:11:00,78.0,35.0,-100.00,South,178,8.0,17.0,21,0.00,,,0.00,1046.000000,,2013-05-12 19:11:00,
2013-05-12 13:21:00,78.0,35.0,-100.00,South,178,8.0,17.0,21,0.00,,,0.00,1046.000000,,2013-05-12 19:21:00,
2013-05-12 13:42:00,79.0,34.0,-100.00,South,176,8.0,15.0,20,0.00,,,0.00,924.000000,,2013-05-12 19:42:00,
2013-05-12 13:52:00,79.0,34.0,-100.00,South,176,8.0,15.0,20,0.00,,,0.00,924.000000,,2013-05-12 19:52:00,
2013-05-12 14:02:00,79.0,34.0,-100.00,South,176,8.0,15.0,20,0.00,,,0.00,924.000000,,2013-05-12 20:02:00,
2013-05-12 14:11:00,79.0,34.0,-100.00,South,176,8.0,15.0,20,0.00,,,0.00,924.000000,,2013-05-12 20:11:00,
2013-05-12 14:21:00,79.0,34.0,-100.00,South,176,8.0,15.0,20,0.00,,,0.00,924.000000,,2013-05-12 20:21:00,
2013-05-12 14:52:00,81.0,36.0,-100.00,South,186,7.0,16.0,20,0.00,,,0.00,925.000000,,2013-05-12 20:52:00,
2013-05-12 15:01:00,81.0,36.0,-100.00,South,186,7.0,16.0,20,0.00,,,0.00,925.000000,,2013-05-12 21:01:00,
2013-05-12 15:11:00,81.0,36.0,-100.00,South,186,7.0,16.0,20,0.00,,,0.00,925.000000,,2013-05-12 21:11:00,
2013-05-12 15:21:00,81.0,36.0,-100.00,South,186,7.0,16.0,20,0.00,,,0.00,925.000000,,2013-05-12 21:21:00,
2013-05-12 15:53:00,85.0,37.0,-100.00,SW,220,6.0,15.0,18,0.00,,,0.00,885.000000,,2013-05-12 21:53:00,
2013-05-12 16:02:00,85.0,37.0,-100.00,SW,220,6.0,15.0,18,0.00,,,0.00,885.000000,,2013-05-12 22:02:00,
2013-05-12 16:12:00,85.0,37.0,-100.00,SW,220,6.0,15.0,18,0.00,,,0.00,885.000000,,2013-05-12 22:12:00,
2013-05-12 16:23:00,85.0,37.0,-100.00,SW,220,6.0,15.0,18,0.00,,,0.00,885.000000,,2013-05-12 22:23:00,
2013-05-12 16:52:00,86.0,39.0,-100.00,SW,228,4.0,15.0,19,0.00,,,0.00,660.000000,,2013-05-12 22:52:00,
2013-05-12 17:02:00,86.0,39.0,-100.00,SW,228,4.0,15.0,19,0.00,,,0.00,660.000000,,2013-05-12 23:02:00,
2013-05-12 17:12:00,86.0,39.0,-100.00,SW,228,4.0,15.0,19,0.00,,,0.00,660.000000,,2013-05-12 23:12:00,
2013-05-12 17:22:00,86.0,39.0,-100.00,SW,228,4.0,15.0,19,0.00,,,0.00,660.000000,,2013-05-12 23:22:00,
2013-05-12 17:52:00,85.0,42.0,-100.00,West,267,2.0,11.0,22,0.00,,,0.00,392.000000,,2013-05-12 23:52:00,
2013-05-12 18:01:00,85.0,42.0,-100.00,West,267,2.0,11.0,22,0.00,,,0.00,392.000000,,2013-05-13 00:01:00,
2013-05-12 18:11:00,85.0,42.0,-100.00,West,267,2.0,11.0,22,0.00,,,0.00,392.000000,,2013-05-13 00:11:00,
2013-05-12 18:21:00,85.0,42.0,-100.00,West,267,2.0,11.0,22,0.00,,,0.00,392.000000,,2013-05-13 00:21:00,
2013-05-12 18:52:00,84.0,40.0,-100.00,SW,215,2.0,6.0,21,0.00,,,0.00,236.000000,,2013-05-13 00:52:00,
2013-05-12 19:01:00,84.0,40.0,-100.00,SW,215,2.0,6.0,21,0.00,,,0.00,236.000000,,2013-05-13 01:01:00,
2013-05-12 19:11:00,84.0,40.0,-100.00,SW,215,2.0,6.0,21,0.00,,,0.00,236.000000,,2013-05-13 01:11:00,
2013-05-12 19:22:00,84.0,40.0,-100.00,SW,215,2.0,6.0,21,0.00,,,0.00,236.000000,,2013-05-13 01:22:00,
2013-05-12 19:52:00,80.0,41.0,-100.00,SSW,203,2.0,4.0,25,0.00,,,0.00,156.000000,,2013-05-13 01:52:00,
2013-05-12 20:01:00,80.0,41.0,-100.00,SSW,203,2.0,4.0,25,0.00,,,0.00,156.000000,,2013-05-13 02:01:00,
2013-05-12 20:11:00,80.0,41.0,-100.00,SSW,203,2.0,4.0,25,0.00,,,0.00,156.000000,,2013-05-13 02:11:00,
2013-05-12 20:21:00,80.0,41.0,-100.00,SSW,203,2.0,4.0,25,0.00,,,0.00,156.000000,,2013-05-13 02:21:00,
2013-05-12 20:52:00,73.0,44.0,-100.00,SW,230,2.0,4.0,36,0.00,,,0.00,32.000000,,2013-05-13 02:52:00,
2013-05-12 21:02:00,73.0,44.0,-100.00,SW,230,2.0,4.0,36,0.00,,,0.00,32.000000,,2013-05-13 03:02:00,
2013-05-12 21:11:00,73.0,44.0,-100.00,SW,230,2.0,4.0,36,0.00,,,0.00,32.000000,,2013-05-13 03:11:00,
2013-05-12 21:21:00,73.0,44.0,-100.00,SW,230,2.0,4.0,36,0.00,,,0.00,32.000000,,2013-05-13 03:21:00,
2013-05-12 21:53:00,67.0,43.0,-100.00,SW,234,2.0,5.0,42,0.00,,,0.00,0.000000,,2013-05-13 03:53:00,
2013-05-12 22:02:00,67.0,43.0,-100.00,SW,234,2.0,5.0,42,0.00,,,0.00,0.000000,,2013-05-13 04:02:00,
2013-05-12 22:12:00,67.0,43.0,-100.00,SW,234,2.0,5.0,42,0.00,,,0.00,0.000000,,2013-05-13 04:12:00,
2013-05-12 22:23:00,67.0,43.0,-100.00,SW,234,2.0,5.0,42,0.00,,,0.00,0.000000,,2013-05-13 04:23:00,
2013-05-12 22:53:00,65.0,45.0,-100.00,WSW,240,1.0,4.0,49,0.00,,,0.00,0.000000,,2013-05-13 04:53:00,
2013-05-12 23:02:00,65.0,45.0,-100.00,WSW,240,1.0,4.0,49,0.00,,,0.00,0.000000,,2013-05-13 05:02:00,
2013-05-12 23:12:00,65.0,45.0,-100.00,WSW,240,1.0,4.0,49,0.00,,,0.00,0.000000,,2013-05-13 05:12:00,
2013-05-12 23:21:00,65.0,45.0,-100.00,WSW,240,1.0,4.0,49,0.00,,,0.00,0.000000,,2013-05-13 05:21:00,
2013-05-12 23:52:00,67.0,43.0,-100.00,WSW,237,3.0,6.0,41,0.00,,,0.00,0.000000,,2013-05-13 05:52:00,